Masonic Park, Colorado
Current Conditions -  °F | °C
As of 3:30 AM on Friday 21 Nov 2014 (Local Time) from KRCV Reporting Station
Clear Clear  
Wind Chill: 14°   Ceiling: Unl
Heat Index: 24°   Visibility: 10mi
Dew Point: 13°   Wind: 10mph
Humidity: 61%   Direction: 270°W
Pressure: 30.07"   Gusts: NA
Location:  37.6617°N, 106.617°W
Report Text: KRCV 211030Z AUTO 27009KT 10SM CLR M04/M11 A3007 RMK AO2 T10421108
Loading
Personal Weather Stations






























Interactive Weather Map New forecast layout! Learn more

10-Day Weather Forecast

Advertisements
Track Severe Weather on mobile